Time;durP1;ratioP1;P1;durP2;ratioP2;P2;SDS_P1;SDS_P2;PMS_P1;PMS_P2;Temp;Humidity;BMP_temperature;BMP_pressure;BME280_temperature;BME280_humidity;BME280_pressure;Samples;Min_cycle;Max_cycle;Signal;HPM_P1;HPM_P2
2021/12/30 00:00:52;;;;;;;12.00;7.30;;;7.10;99.90;;;;;;5060190;28;20460;-50
2021/12/30 00:03:19;;;;;;;19.53;9.80;;;7.00;99.90;;;;;;5060243;28;20440;-50
2021/12/30 00:05:47;;;;;;;14.67;5.70;;;7.10;99.90;;;;;;5059430;28;20980;-50
2021/12/30 00:08:14;;;;;;;15.13;6.30;;;7.00;99.90;;;;;;5059401;28;20987;-44
2021/12/30 00:10:42;;;;;;;12.83;7.80;;;7.00;99.90;;;;;;5059285;28;20459;-50
2021/12/30 00:13:09;;;;;;;12.43;6.60;;;7.10;99.90;;;;;;5059799;28;20479;-46
2021/12/30 00:15:38;;;;;;;15.00;8.40;;;7.10;99.90;;;;;;5059498;28;20440;-53
2021/12/30 00:18:06;;;;;;;22.23;6.80;;;7.10;99.90;;;;;;5059467;28;20490;-49
2021/12/30 00:20:34;;;;;;;13.00;5.87;;;7.10;99.90;;;;;;5059823;28;20451;-50
2021/12/30 00:23:02;;;;;;;18.67;8.73;;;7.10;99.90;;;;;;5059454;28;20542;-49
2021/12/30 00:25:37;;;;;;;15.90;7.80;;;7.10;99.90;;;;;;5059387;28;20494;-49
2021/12/30 00:28:04;;;;;;;13.70;6.87;;;7.00;99.90;;;;;;5060678;28;20484;-53
2021/12/30 00:30:31;;;;;;;17.13;7.03;;;7.00;99.90;;;;;;5063343;28;20505;-47
2021/12/30 00:33:00;;;;;;;19.30;7.47;;;7.00;99.90;;;;;;5064328;28;20472;-50
2021/12/30 00:35:27;;;;;;;10.00;7.30;;;7.00;99.90;;;;;;5064060;28;20432;-49
2021/12/30 00:37:54;;;;;;;11.90;6.00;;;7.00;99.90;;;;;;5064434;28;20468;-51
2021/12/30 00:40:20;;;;;;;15.27;7.70;;;7.00;99.90;;;;;;5064682;28;20460;-52
2021/12/30 00:42:47;;;;;;;11.97;6.80;;;6.90;99.90;;;;;;5064177;28;20562;-52
2021/12/30 00:45:14;;;;;;;12.50;7.10;;;7.00;99.90;;;;;;5063299;28;20540;-48
2021/12/30 00:47:41;;;;;;;17.13;9.47;;;6.90;99.90;;;;;;5063740;28;20467;-51
2021/12/30 00:50:10;;;;;;;17.07;7.97;;;6.90;99.90;;;;;;5063825;28;20454;-51
2021/12/30 00:52:37;;;;;;;12.57;6.93;;;6.90;99.90;;;;;;5063236;28;20458;-47
2021/12/30 00:55:05;;;;;;;12.67;8.30;;;7.00;99.90;;;;;;5063889;28;20489;-47
2021/12/30 00:57:32;;;;;;;12.70;5.90;;;6.90;99.90;;;;;;5063624;28;20475;-49
2021/12/30 00:59:59;;;;;;;14.80;7.97;;;6.90;99.90;;;;;;5062942;28;20458;-50
2021/12/30 01:02:25;;;;;;;12.33;7.10;;;7.00;99.90;;;;;;5063025;28;20443;-46
2021/12/30 01:04:52;;;;;;;9.23;5.60;;;7.00;99.90;;;;;;5063362;28;20832;-50
2021/12/30 01:07:21;;;;;;;14.60;7.30;;;7.00;99.90;;;;;;5063084;28;20459;-52
2021/12/30 01:09:50;;;;;;;11.77;6.37;;;7.10;99.90;;;;;;5062492;28;20967;-47
2021/12/30 01:12:18;;;;;;;9.53;5.87;;;7.10;99.90;;;;;;5063980;28;20455;-51
2021/12/30 01:14:47;;;;;;;16.33;7.93;;;7.00;99.90;;;;;;5063670;28;20459;-50
2021/12/30 01:17:19;;;;;;;13.47;6.63;;;7.00;99.90;;;;;;5062700;28;20448;-53
2021/12/30 01:19:46;;;;;;;13.20;7.40;;;7.10;99.90;;;;;;5061683;28;20505;-50
2021/12/30 01:22:17;;;;;;;11.97;6.73;;;7.10;99.90;;;;;;5061700;28;20505;-49
2021/12/30 01:24:46;;;;;;;13.13;7.67;;;7.20;99.90;;;;;;5062113;28;20484;-50
2021/12/30 01:27:15;;;;;;;11.57;5.83;;;7.20;99.90;;;;;;5061754;28;20447;-50
2021/12/30 01:29:42;;;;;;;9.23;5.50;;;7.20;99.90;;;;;;5062397;28;20936;-51
2021/12/30 01:32:09;;;;;;;10.77;5.53;;;7.20;99.90;;;;;;5062099;28;20454;-51
2021/12/30 01:34:36;;;;;;;14.77;6.80;;;7.30;99.90;;;;;;5061583;28;20514;-51
2021/12/30 01:37:06;;;;;;;14.20;8.00;;;7.20;99.90;;;;;;5062771;28;20531;-48
2021/12/30 01:39:36;;;;;;;11.87;5.70;;;7.20;99.90;;;;;;5061345;28;20467;-52
2021/12/30 01:42:06;;;;;;;9.33;5.30;;;7.20;99.90;;;;;;5061643;28;20428;-52
2021/12/30 01:44:34;;;;;;;9.43;8.10;;;7.20;99.90;;;;;;5061493;28;20471;-47
2021/12/30 01:47:01;;;;;;;11.13;6.17;;;7.20;99.90;;;;;;5061742;28;20450;-52
2021/12/30 01:49:28;;;;;;;12.40;5.80;;;7.20;99.90;;;;;;5061871;28;20479;-44
2021/12/30 01:51:56;;;;;;;9.70;5.33;;;7.30;99.90;;;;;;5061751;28;20969;-45
2021/12/30 01:54:24;;;;;;;9.00;6.17;;;7.20;99.90;;;;;;5061244;28;20559;-51
2021/12/30 01:56:52;;;;;;;8.60;6.00;;;7.30;99.90;;;;;;5061895;28;20420;-48
2021/12/30 01:59:23;;;;;;;13.33;6.23;;;7.20;99.90;;;;;;5061908;28;20486;-49
2021/12/30 02:01:56;;;;;;;12.00;6.87;;;7.20;99.90;;;;;;5061358;28;20943;-53
2021/12/30 02:04:23;;;;;;;8.60;5.70;;;7.20;99.90;;;;;;5061625;28;20475;-46
2021/12/30 02:06:52;;;;;;;11.83;5.60;;;7.10;99.90;;;;;;5060993;28;20471;-48
2021/12/30 02:09:19;;;;;;;6.90;5.00;;;7.10;99.90;;;;;;5060747;28;20447;-51
2021/12/30 02:11:46;;;;;;;11.07;6.30;;;7.10;99.90;;;;;;5061488;28;20429;-50
2021/12/30 02:14:13;;;;;;;11.50;5.47;;;7.10;99.90;;;;;;5061696;28;20444;-50
2021/12/30 02:16:41;;;;;;;8.93;6.50;;;7.10;99.90;;;;;;5061026;28;20760;-51
2021/12/30 02:19:08;;;;;;;12.30;7.40;;;7.10;99.90;;;;;;5061364;28;20444;-51
2021/12/30 02:21:37;;;;;;;11.00;6.10;;;7.20;99.90;;;;;;5061139;28;20444;-52
2021/12/30 02:24:06;;;;;;;9.97;6.40;;;7.20;99.90;;;;;;5061156;28;20521;-47
2021/12/30 02:26:33;;;;;;;10.30;7.23;;;7.30;99.90;;;;;;5061003;28;20487;-48
2021/12/30 02:29:02;;;;;;;9.70;6.20;;;7.30;99.90;;;;;;5061374;28;20444;-51
2021/12/30 02:31:31;;;;;;;8.83;5.73;;;7.20;99.90;;;;;;5061557;28;20472;-50
2021/12/30 02:34:00;;;;;;;10.70;6.37;;;7.30;99.90;;;;;;5061243;28;20474;-51
2021/12/30 02:36:30;;;;;;;12.20;5.63;;;7.30;99.90;;;;;;5061012;28;20443;-52
2021/12/30 02:38:59;;;;;;;7.07;5.17;;;7.30;99.90;;;;;;5060981;28;20478;-53
2021/12/30 02:41:27;;;;;;;11.17;6.97;;;7.30;99.90;;;;;;5060746;28;20537;-51
2021/12/30 02:43:55;;;;;;;11.17;7.47;;;7.40;99.90;;;;;;5060694;28;21004;-47
2021/12/30 02:46:23;;;;;;;7.87;5.13;;;7.40;99.90;;;;;;5060946;28;20489;-50
2021/12/30 02:48:54;;;;;;;9.40;5.63;;;7.40;99.90;;;;;;5060923;28;20447;-50
2021/12/30 02:51:21;;;;;;;9.53;5.23;;;7.40;99.90;;;;;;5061138;28;20875;-48
2021/12/30 02:53:48;;;;;;;9.93;6.83;;;7.40;99.90;;;;;;5061043;28;20754;-51
2021/12/30 02:56:17;;;;;;;11.90;6.43;;;7.40;99.90;;;;;;5061480;28;20810;-47
2021/12/30 02:58:44;;;;;;;11.40;5.40;;;7.40;99.90;;;;;;5062464;28;20447;-48
2021/12/30 03:01:14;;;;;;;8.77;5.20;;;7.40;99.90;;;;;;5061378;28;20479;-46
2021/12/30 03:03:41;;;;;;;11.10;6.03;;;7.50;99.90;;;;;;5061498;28;20513;-49
2021/12/30 03:06:11;;;;;;;8.30;5.90;;;7.40;99.90;;;;;;5060939;28;20506;-49
2021/12/30 03:08:40;;;;;;;10.90;5.87;;;7.40;99.90;;;;;;5060530;28;20455;-54
2021/12/30 03:11:08;;;;;;;11.37;5.20;;;7.40;99.90;;;;;;5060159;28;20475;-52
2021/12/30 03:13:42;;;;;;;12.07;6.57;;;7.50;99.90;;;;;;5060666;28;20574;-47
2021/12/30 03:16:13;;;;;;;9.90;6.07;;;7.50;99.90;;;;;;5060823;28;20541;-47
2021/12/30 03:18:41;;;;;;;10.73;6.37;;;7.50;99.90;;;;;;5060483;28;20439;-53
2021/12/30 03:21:10;;;;;;;11.13;5.40;;;7.50;99.90;;;;;;5060453;28;20846;-49
2021/12/30 03:23:37;;;;;;;11.17;5.53;;;7.50;99.90;;;;;;5060241;28;20455;-46
2021/12/30 03:26:05;;;;;;;8.97;5.57;;;7.50;99.90;;;;;;5060728;28;20479;-50
2021/12/30 03:28:33;;;;;;;8.40;6.40;;;7.50;99.90;;;;;;5060487;28;20459;-47
2021/12/30 03:31:01;;;;;;;9.90;5.67;;;7.50;99.90;;;;;;5060564;28;20452;-50
2021/12/30 03:33:29;;;;;;;5.60;3.83;;;7.50;99.90;;;;;;5061268;28;20501;-53
2021/12/30 03:35:59;;;;;;;13.80;5.33;;;7.50;99.90;;;;;;5061698;28;20444;-47
2021/12/30 03:38:25;;;;;;;6.33;4.67;;;7.50;99.90;;;;;;5060885;28;20460;-46
2021/12/30 03:40:52;;;;;;;9.43;5.87;;;7.50;99.90;;;;;;5060166;28;20905;-47
2021/12/30 03:43:19;;;;;;;7.53;5.13;;;7.40;99.90;;;;;;5059912;28;20452;-51
2021/12/30 03:45:46;;;;;;;8.10;4.77;;;7.50;99.90;;;;;;5059814;28;20552;-53
2021/12/30 03:48:14;;;;;;;10.00;5.83;;;7.50;99.90;;;;;;5059604;28;20851;-51
2021/12/30 03:50:44;;;;;;;17.17;5.83;;;7.50;99.90;;;;;;5059662;28;20468;-53
2021/12/30 03:53:12;;;;;;;9.97;5.57;;;7.50;99.90;;;;;;5059361;28;20476;-53
2021/12/30 03:55:40;;;;;;;7.73;5.43;;;7.50;99.90;;;;;;5059847;28;20480;-50
2021/12/30 03:58:06;;;;;;;7.27;4.70;;;7.60;99.90;;;;;;5060167;28;20484;-50
2021/12/30 04:00:35;;;;;;;10.30;6.20;;;7.60;99.90;;;;;;5060165;28;20459;-45
2021/12/30 04:03:01;;;;;;;6.17;4.80;;;7.60;99.90;;;;;;5059782;28;20469;-53
2021/12/30 04:05:30;;;;;;;10.40;4.20;;;7.70;99.90;;;;;;5060382;28;20497;-47
2021/12/30 04:07:59;;;;;;;8.50;4.43;;;7.70;99.90;;;;;;5059607;28;20482;-51
2021/12/30 04:10:26;;;;;;;9.40;4.70;;;7.70;99.90;;;;;;5060709;28;20467;-46
2021/12/30 04:12:54;;;;;;;7.50;4.47;;;7.70;99.90;;;;;;5059596;28;20472;-47
2021/12/30 04:15:21;;;;;;;9.80;4.90;;;7.70;99.90;;;;;;5059532;28;20461;-50
2021/12/30 04:17:49;;;;;;;9.50;5.40;;;7.70;99.90;;;;;;5059953;28;20536;-50
2021/12/30 04:20:17;;;;;;;7.80;5.10;;;7.80;99.90;;;;;;5059303;28;20436;-46
2021/12/30 04:22:45;;;;;;;9.20;5.93;;;7.80;99.90;;;;;;5059962;28;20498;-51
2021/12/30 04:25:14;;;;;;;7.17;4.50;;;7.80;99.90;;;;;;5059737;28;20447;-51
2021/12/30 04:27:42;;;;;;;7.70;4.70;;;7.80;99.90;;;;;;5059782;28;20464;-51
2021/12/30 04:30:11;;;;;;;12.50;5.23;;;7.90;99.90;;;;;;5059619;28;20466;-51
2021/12/30 04:32:39;;;;;;;9.30;7.40;;;7.80;99.90;;;;;;5060136;28;20501;-52
2021/12/30 04:35:07;;;;;;;8.80;5.83;;;7.90;99.90;;;;;;5059824;28;20429;-49
2021/12/30 04:37:34;;;;;;;11.67;4.50;;;7.90;99.90;;;;;;5059865;28;20448;-51
2021/12/30 04:40:04;;;;;;;10.03;4.40;;;8.00;99.90;;;;;;5059897;28;20432;-49
2021/12/30 04:42:31;;;;;;;9.67;4.63;;;8.00;99.90;;;;;;5060637;28;20517;-52
2021/12/30 04:44:58;;;;;;;8.23;4.50;;;8.00;99.90;;;;;;5060001;28;20456;-50
2021/12/30 04:47:25;;;;;;;7.17;4.20;;;8.10;99.90;;;;;;5059683;28;20509;-49
2021/12/30 04:49:54;;;;;;;15.33;5.77;;;8.20;99.90;;;;;;5059658;28;20534;-52
2021/12/30 04:52:21;;;;;;;13.33;6.00;;;8.20;99.90;;;;;;5059956;28;20912;-51
2021/12/30 04:54:48;;;;;;;12.30;6.50;;;8.20;99.90;;;;;;5059340;28;20466;-51
2021/12/30 04:57:17;;;;;;;11.60;7.10;;;8.30;99.90;;;;;;5059377;28;20817;-50
2021/12/30 04:59:43;;;;;;;13.27;5.93;;;8.30;99.90;;;;;;5059527;28;20441;-50
2021/12/30 05:02:11;;;;;;;10.50;5.13;;;8.40;99.90;;;;;;5059448;28;20468;-50
2021/12/30 05:04:38;;;;;;;14.30;5.57;;;8.40;99.90;;;;;;5059284;28;20476;-47
2021/12/30 05:07:08;;;;;;;15.17;8.00;;;8.40;99.90;;;;;;5059887;28;20921;-52
2021/12/30 05:09:34;;;;;;;12.20;7.30;;;8.40;99.90;;;;;;5059121;28;20966;-49
2021/12/30 05:12:01;;;;;;;9.93;5.53;;;8.40;99.90;;;;;;5059157;28;20467;-49
2021/12/30 05:14:29;;;;;;;11.43;6.53;;;8.40;99.90;;;;;;5059257;28;20473;-44
2021/12/30 05:17:02;;;;;;;27.47;8.83;;;8.40;99.90;;;;;;5063200;28;20442;-51
2021/12/30 05:19:29;;;;;;;15.27;6.87;;;8.50;99.90;;;;;;5063610;28;20530;-45
2021/12/30 05:21:56;;;;;;;10.63;5.73;;;8.50;99.90;;;;;;5063758;28;20455;-48
2021/12/30 05:24:22;;;;;;;13.13;7.50;;;8.50;99.90;;;;;;5063987;28;20550;-50
2021/12/30 05:26:49;;;;;;;22.70;8.23;;;8.60;99.90;;;;;;5062785;28;20468;-53
2021/12/30 05:29:16;;;;;;;13.40;7.03;;;8.60;99.90;;;;;;5061763;28;20452;-47
2021/12/30 05:31:44;;;;;;;13.40;7.17;;;8.60;99.90;;;;;;5062563;28;20929;-52
2021/12/30 05:34:11;;;;;;;12.97;7.70;;;8.70;99.90;;;;;;5061689;28;20467;-49
2021/12/30 05:36:37;;;;;;;15.10;6.77;;;8.70;99.90;;;;;;5061877;28;20468;-50
2021/12/30 05:39:04;;;;;;;16.83;9.40;;;8.70;99.90;;;;;;5062139;28;20511;-49
2021/12/30 05:41:31;;;;;;;15.97;8.17;;;8.70;99.90;;;;;;5062818;28;20561;-50
2021/12/30 05:43:58;;;;;;;14.77;8.33;;;8.80;99.90;;;;;;5061720;28;20965;-51
2021/12/30 05:46:25;;;;;;;20.60;8.30;;;8.80;99.90;;;;;;5062166;28;20499;-49
2021/12/30 05:48:53;;;;;;;16.07;7.47;;;8.80;99.90;;;;;;5062880;28;20444;-52
2021/12/30 05:51:19;;;;;;;12.10;7.20;;;8.80;99.90;;;;;;5061876;28;20497;-47
2021/12/30 05:53:46;;;;;;;16.80;8.47;;;8.80;99.90;;;;;;5062820;28;20445;-52
2021/12/30 05:56:13;;;;;;;18.17;8.40;;;8.80;99.90;;;;;;5063238;28;20449;-46
2021/12/30 05:58:39;;;;;;;16.10;8.70;;;8.80;99.90;;;;;;5063037;28;20534;-48
2021/12/30 06:01:08;;;;;;;10.90;7.40;;;8.80;99.90;;;;;;5062836;28;20463;-52
2021/12/30 06:03:34;;;;;;;18.63;8.40;;;8.90;99.90;;;;;;5062036;28;20469;-50
2021/12/30 06:06:03;;;;;;;18.90;6.77;;;8.90;99.90;;;;;;5056155;28;20903;-50
2021/12/30 06:08:29;;;;;;;13.07;7.40;;;8.90;99.90;;;;;;5056206;28;20463;-53
2021/12/30 06:10:56;;;;;;;15.50;7.73;;;8.90;99.90;;;;;;5056092;28;20436;-53
2021/12/30 06:13:23;;;;;;;17.10;8.47;;;9.00;99.90;;;;;;5056424;28;20914;-54
2021/12/30 06:15:49;;;;;;;11.70;6.20;;;9.00;99.90;;;;;;5056292;28;20455;-50
2021/12/30 06:18:16;;;;;;;21.27;7.50;;;9.00;99.90;;;;;;5056337;28;20506;-54
2021/12/30 06:20:43;;;;;;;25.73;7.00;;;9.00;99.90;;;;;;5055801;28;20942;-51
2021/12/30 06:23:11;;;;;;;23.63;8.70;;;9.00;99.90;;;;;;5055914;28;20973;-52
2021/12/30 06:25:38;;;;;;;13.17;6.80;;;9.00;99.90;;;;;;5055720;28;20481;-52
2021/12/30 06:28:05;;;;;;;22.90;7.73;;;9.10;99.90;;;;;;5055728;28;20479;-54
2021/12/30 06:30:31;;;;;;;16.97;7.70;;;9.10;99.90;;;;;;5056028;28;20482;-53
2021/12/30 06:32:58;;;;;;;17.23;7.53;;;9.10;99.90;;;;;;5055607;28;20475;-54
2021/12/30 06:35:28;;;;;;;14.63;6.30;;;9.10;99.90;;;;;;5055883;28;20494;-50
2021/12/30 06:37:55;;;;;;;13.40;8.43;;;9.10;99.90;;;;;;5055963;28;20530;-52
2021/12/30 06:40:23;;;;;;;17.43;6.97;;;9.10;99.90;;;;;;5055987;28;20474;-54
2021/12/30 06:42:49;;;;;;;16.93;8.67;;;9.20;99.90;;;;;;5056035;28;20471;-49
2021/12/30 06:45:16;;;;;;;13.33;6.83;;;9.20;99.90;;;;;;5055855;28;20958;-50
2021/12/30 06:47:45;;;;;;;16.43;8.50;;;9.10;99.90;;;;;;5055874;28;20582;-54
2021/12/30 06:50:13;;;;;;;16.50;8.53;;;9.10;99.90;;;;;;5056036;28;20547;-52
2021/12/30 06:52:41;;;;;;;15.47;6.67;;;9.10;99.90;;;;;;5055669;28;20445;-51
2021/12/30 06:55:09;;;;;;;11.77;6.90;;;9.10;99.90;;;;;;5055657;28;20458;-53
2021/12/30 06:57:37;;;;;;;13.73;5.60;;;9.10;99.90;;;;;;5055453;28;20497;-52
2021/12/30 07:00:09;;;;;;;16.47;7.50;;;9.10;99.90;;;;;;5055358;28;20469;-48
2021/12/30 07:02:36;;;;;;;18.10;7.17;;;9.10;99.90;;;;;;5056523;28;20432;-59
2021/12/30 07:05:03;;;;;;;9.07;4.73;;;9.10;99.90;;;;;;5056485;28;20790;-50
2021/12/30 07:07:30;;;;;;;10.80;5.37;;;9.10;99.90;;;;;;5055470;28;21020;-49
2021/12/30 07:09:57;;;;;;;10.07;5.93;;;9.00;99.90;;;;;;5055311;28;20464;-53
2021/12/30 07:12:23;;;;;;;12.60;5.13;;;9.00;99.90;;;;;;5055379;28;20747;-49
2021/12/30 07:14:51;;;;;;;12.00;6.60;;;9.00;99.90;;;;;;5055353;28;20843;-49
2021/12/30 07:17:18;;;;;;;10.13;6.30;;;9.00;99.90;;;;;;5055309;28;20461;-53
2021/12/30 07:19:45;;;;;;;10.93;6.00;;;8.90;99.90;;;;;;5055179;28;20459;-53
2021/12/30 07:22:12;;;;;;;11.60;6.20;;;9.00;99.90;;;;;;5055429;28;20467;-51
2021/12/30 07:24:38;;;;;;;9.53;5.50;;;8.90;99.90;;;;;;5055794;28;20526;-54
2021/12/30 07:27:05;;;;;;;14.00;6.00;;;8.90;99.90;;;;;;5055436;28;20974;-53
2021/12/30 07:29:32;;;;;;;9.03;6.13;;;8.90;99.90;;;;;;5055897;28;20433;-54
2021/12/30 07:32:00;;;;;;;16.57;6.40;;;8.90;99.90;;;;;;5056546;28;20474;-52
2021/12/30 07:34:26;;;;;;;12.23;5.93;;;8.90;99.90;;;;;;5057108;28;20451;-47
2021/12/30 07:36:53;;;;;;;12.53;6.00;;;8.90;99.90;;;;;;5056511;28;20461;-50
2021/12/30 07:39:20;;;;;;;13.07;6.13;;;9.00;99.90;;;;;;5054802;28;20452;-55
2021/12/30 07:41:46;;;;;;;19.70;5.70;;;8.90;99.90;;;;;;5055273;28;20447;-54
2021/12/30 07:44:16;;;;;;;9.30;4.67;;;8.90;99.90;;;;;;5055121;28;20473;-55
2021/12/30 07:46:43;;;;;;;12.73;5.77;;;9.00;99.90;;;;;;5054431;28;20574;-48
2021/12/30 07:49:11;;;;;;;20.37;8.17;;;9.00;99.90;;;;;;5054414;28;20468;-52
2021/12/30 07:51:37;;;;;;;9.73;5.60;;;9.10;99.90;;;;;;5054843;28;20479;-53
2021/12/30 07:54:04;;;;;;;21.57;7.40;;;9.10;99.90;;;;;;5054757;28;20513;-52
2021/12/30 07:56:31;;;;;;;8.23;5.20;;;9.20;99.90;;;;;;5054707;28;20449;-52
2021/12/30 07:58:58;;;;;;;10.63;6.07;;;9.20;99.90;;;;;;5054576;28;20455;-53
2021/12/30 08:01:25;;;;;;;15.93;5.17;;;9.20;99.90;;;;;;5054202;28;20958;-52
2021/12/30 08:03:51;;;;;;;19.13;6.43;;;9.20;99.90;;;;;;5054717;28;20443;-54
2021/12/30 08:06:20;;;;;;;16.30;6.70;;;9.20;99.90;;;;;;5054513;28;20483;-54
2021/12/30 08:08:47;;;;;;;13.00;5.53;;;9.20;99.90;;;;;;5054513;28;20553;-50
2021/12/30 08:11:15;;;;;;;9.00;5.00;;;9.20;99.90;;;;;;5054428;28;20443;-52
2021/12/30 08:13:41;;;;;;;14.07;6.47;;;9.20;99.90;;;;;;5054511;28;20454;-51
2021/12/30 08:16:10;;;;;;;11.27;5.33;;;9.20;99.90;;;;;;5054247;28;20474;-53
2021/12/30 08:18:37;;;;;;;16.90;6.50;;;9.30;99.90;;;;;;5054424;28;20467;-55
2021/12/30 08:21:03;;;;;;;16.20;6.00;;;9.30;99.90;;;;;;5054945;28;20463;-55
2021/12/30 08:23:31;;;;;;;10.73;5.10;;;9.40;99.90;;;;;;5054462;28;20482;-47
2021/12/30 08:25:58;;;;;;;8.00;5.80;;;9.40;99.90;;;;;;5054102;28;20516;-55
2021/12/30 08:28:27;;;;;;;11.93;6.10;;;9.50;99.90;;;;;;5053811;28;20494;-53
2021/12/30 08:30:54;;;;;;;13.97;6.53;;;9.50;99.90;;;;;;5054343;28;20528;-52
2021/12/30 08:33:21;;;;;;;11.93;5.97;;;9.60;99.90;;;;;;5054003;28;20428;-53
2021/12/30 08:35:47;;;;;;;11.67;5.00;;;9.60;99.90;;;;;;5055370;28;20821;-58
2021/12/30 08:38:16;;;;;;;10.67;5.90;;;9.70;99.90;;;;;;5054506;28;20477;-56
2021/12/30 08:40:45;;;;;;;8.97;5.73;;;9.70;99.90;;;;;;5053849;28;20482;-52
2021/12/30 08:43:13;;;;;;;9.03;6.40;;;9.70;99.90;;;;;;5054263;28;20535;-53
2021/12/30 08:45:40;;;;;;;14.60;5.97;;;9.80;99.90;;;;;;5054355;28;20567;-55
2021/12/30 08:48:07;;;;;;;26.20;5.20;;;9.80;99.90;;;;;;5053848;28;20545;-59
2021/12/30 08:50:35;;;;;;;6.63;4.47;;;9.80;99.90;;;;;;5057089;28;20467;-61
2021/12/30 08:53:02;;;;;;;11.17;5.27;;;9.80;99.90;;;;;;5057935;28;20428;-56
2021/12/30 08:55:29;;;;;;;8.83;5.47;;;9.80;99.90;;;;;;5057863;28;20466;-58
2021/12/30 08:57:57;;;;;;;15.70;6.20;;;9.90;99.90;;;;;;5057977;28;20447;-58
2021/12/30 09:00:25;;;;;;;14.93;7.17;;;9.90;99.90;;;;;;5059119;28;20459;-55
2021/12/30 09:02:52;;;;;;;11.90;6.43;;;9.90;99.90;;;;;;5057422;28;20518;-57
2021/12/30 09:05:19;;;;;;;18.07;7.40;;;9.90;99.90;;;;;;5056940;28;20762;-56
2021/12/30 09:07:47;;;;;;;19.73;6.53;;;10.00;99.90;;;;;;5057184;28;20520;-56
2021/12/30 09:10:16;;;;;;;12.60;6.40;;;10.00;99.90;;;;;;5057621;28;20452;-57
2021/12/30 09:12:44;;;;;;;21.77;7.57;;;10.00;99.90;;;;;;5057323;28;20463;-56
2021/12/30 09:15:14;;;;;;;11.20;6.10;;;10.10;99.90;;;;;;5057541;28;20447;-56
2021/12/30 09:17:43;;;;;;;21.70;7.50;;;10.10;99.90;;;;;;5057609;28;20512;-58
2021/12/30 09:20:11;;;;;;;10.70;5.70;;;10.10;99.90;;;;;;5057654;28;20455;-53
2021/12/30 09:22:39;;;;;;;14.20;7.13;;;10.20;99.90;;;;;;5057706;28;20451;-55
2021/12/30 09:25:07;;;;;;;15.87;6.60;;;10.20;99.90;;;;;;5057346;28;20495;-57
2021/12/30 09:27:34;;;;;;;11.87;6.17;;;10.20;99.90;;;;;;5057302;28;20564;-55
2021/12/30 09:30:02;;;;;;;12.93;6.67;;;10.20;99.90;;;;;;5057385;28;20487;-56
2021/12/30 09:32:30;;;;;;;12.17;6.43;;;10.20;99.90;;;;;;5056628;28;20453;-57
2021/12/30 09:34:57;;;;;;;9.63;5.93;;;10.20;99.90;;;;;;5056677;28;21064;-54
2021/12/30 09:37:23;;;;;;;15.10;5.30;;;10.20;99.90;;;;;;5057020;28;20438;-55
2021/12/30 09:39:50;;;;;;;9.70;6.37;;;10.20;99.90;;;;;;5057088;28;20458;-56
2021/12/30 09:42:18;;;;;;;13.10;5.20;;;10.20;99.90;;;;;;5056608;28;20451;-56
2021/12/30 09:44:45;;;;;;;18.03;6.63;;;10.20;99.90;;;;;;5056870;28;20455;-56
2021/12/30 09:47:12;;;;;;;13.50;5.90;;;10.20;99.90;;;;;;5056339;28;20966;-56
2021/12/30 09:49:40;;;;;;;14.03;5.90;;;10.20;99.90;;;;;;5056689;28;20464;-57
2021/12/30 09:52:07;;;;;;;9.93;4.83;;;10.30;99.90;;;;;;5056334;28;20537;-56
2021/12/30 09:54:34;;;;;;;12.90;4.90;;;10.30;99.90;;;;;;5056744;28;20451;-54
2021/12/30 09:57:01;;;;;;;24.40;5.80;;;10.30;99.90;;;;;;5056565;28;20529;-57
2021/12/30 09:59:29;;;;;;;13.37;5.93;;;10.30;99.90;;;;;;5056706;28;20447;-57
2021/12/30 10:01:56;;;;;;;15.97;6.77;;;10.30;99.90;;;;;;5055594;28;20501;-54
2021/12/30 10:04:30;;;;;;;14.90;5.50;;;10.30;99.90;;;;;;5056231;28;20897;-56
2021/12/30 10:06:59;;;;;;;13.80;5.03;;;10.30;99.90;;;;;;5056623;28;20447;-57
2021/12/30 10:09:39;;;;;;;13.37;5.73;;;10.30;99.90;;;;;;5056962;28;20425;-63
2021/12/30 10:12:07;;;;;;;14.40;5.77;;;10.30;99.90;;;;;;5056787;28;20791;-56
2021/12/30 10:14:36;;;;;;;6.73;4.17;;;10.30;99.90;;;;;;5056680;28;20503;-53
2021/12/30 10:17:17;;;;;;;9.47;4.00;;;10.40;99.90;;;;;;5056482;28;20439;-57
2021/12/30 10:19:44;;;;;;;7.70;3.93;;;10.40;99.90;;;;;;5056666;28;20436;-54
2021/12/30 10:22:14;;;;;;;8.67;4.73;;;10.40;99.90;;;;;;5056470;28;20796;-55
2021/12/30 10:24:42;;;;;;;10.43;4.67;;;10.60;99.90;;;;;;5056140;28;20450;-55
2021/12/30 10:27:09;;;;;;;11.70;5.93;;;10.50;99.90;;;;;;5055619;28;20823;-55
2021/12/30 10:29:44;;;;;;;11.87;4.27;;;10.40;99.90;;;;;;5056153;28;20505;-52
2021/12/30 10:32:15;;;;;;;14.30;5.50;;;10.40;99.90;;;;;;5055668;28;20516;-56
2021/12/30 10:35:06;;;;;;;9.93;4.97;;;10.40;99.90;;;;;;5055998;28;20924;-54
2021/12/30 10:37:36;;;;;;;10.37;5.07;;;10.40;99.90;;;;;;5056039;28;20448;-59
2021/12/30 10:40:04;;;;;;;6.20;5.10;;;10.40;99.90;;;;;;5055960;28;20486;-55
2021/12/30 10:42:33;;;;;;;8.23;5.07;;;10.50;99.90;;;;;;5055534;28;20451;-54
2021/12/30 10:45:04;;;;;;;12.43;3.40;;;10.50;99.90;;;;;;5055300;28;20455;-52
2021/12/30 10:47:33;;;;;;;16.40;4.80;;;10.50;99.90;;;;;;5055254;28;20446;-56
2021/12/30 10:50:02;;;;;;;15.50;4.53;;;10.50;99.90;;;;;;5055534;28;20466;-53
2021/12/30 10:52:30;;;;;;;12.40;4.93;;;10.40;99.90;;;;;;5055229;28;20936;-56
2021/12/30 10:55:00;;;;;;;12.00;5.60;;;10.40;99.90;;;;;;5055432;28;20468;-54
2021/12/30 10:57:29;;;;;;;10.93;6.23;;;10.50;99.90;;;;;;5055570;28;20447;-56
2021/12/30 10:59:57;;;;;;;7.80;4.50;;;10.50;99.90;;;;;;5055487;28;21072;-56
2021/12/30 11:02:26;;;;;;;7.37;4.43;;;10.50;99.90;;;;;;5055328;28;20494;-56
2021/12/30 11:04:56;;;;;;;9.73;4.47;;;10.50;99.90;;;;;;5055343;28;20451;-55
2021/12/30 11:07:24;;;;;;;8.23;4.20;;;10.50;99.90;;;;;;5055171;28;20465;-54
2021/12/30 11:09:53;;;;;;;10.87;3.47;;;10.50;99.90;;;;;;5055272;28;20448;-54
2021/12/30 11:12:26;;;;;;;7.60;4.63;;;10.50;99.90;;;;;;5054819;28;20807;-62
2021/12/30 11:14:54;;;;;;;8.13;5.07;;;10.50;99.90;;;;;;5054899;28;20419;-55
2021/12/30 11:17:24;;;;;;;8.17;4.33;;;10.50;99.90;;;;;;5054899;28;20845;-56
2021/12/30 11:19:54;;;;;;;7.13;4.20;;;10.50;99.90;;;;;;5055351;28;20494;-56
2021/12/30 11:22:23;;;;;;;14.03;5.80;;;10.40;99.90;;;;;;5055141;28;20829;-56
2021/12/30 11:24:52;;;;;;;12.97;5.20;;;10.50;99.90;;;;;;5074309;28;20534;-55
2021/12/30 11:27:20;;;;;;;8.43;5.60;;;10.50;99.90;;;;;;5055717;28;20473;-54
2021/12/30 11:29:51;;;;;;;7.77;5.23;;;10.50;99.90;;;;;;5060833;28;20494;-57
2021/12/30 11:32:20;;;;;;;11.93;5.57;;;10.50;99.90;;;;;;5054935;28;20442;-54
2021/12/30 11:34:48;;;;;;;8.50;4.63;;;10.60;99.90;;;;;;5054419;28;20991;-44
2021/12/30 11:37:17;;;;;;;10.93;5.50;;;10.50;99.90;;;;;;5054499;28;20460;-49
2021/12/30 11:39:46;;;;;;;10.60;4.70;;;10.60;99.90;;;;;;5054686;28;20525;-46
2021/12/30 11:42:18;;;;;;;7.80;4.90;;;10.60;99.90;;;;;;5054711;28;20451;-49
2021/12/30 11:44:49;;;;;;;11.23;5.57;;;10.60;99.90;;;;;;5054661;28;20551;-51
2021/12/30 11:47:39;;;;;;;8.17;4.40;;;10.60;99.90;;;;;;5054982;28;20462;-49
2021/12/30 11:50:09;;;;;;;5.90;3.70;;;10.60;99.90;;;;;;5054602;28;20790;-48
2021/12/30 11:53:06;;;;;;;9.30;5.53;;;10.60;99.90;;;;;;5054856;28;20459;-49
2021/12/30 11:56:03;;;;;;;14.10;6.27;;;10.60;99.90;;;;;;5054479;28;20474;-50
2021/12/30 11:58:41;;;;;;;9.60;4.33;;;10.60;99.90;;;;;;5054512;28;20432;-49
2021/12/30 12:01:38;;;;;;;10.50;4.20;;;10.60;99.90;;;;;;5054533;28;20432;-49
2021/12/30 12:04:08;;;;;;;11.30;5.00;;;10.50;99.90;;;;;;5054060;28;20939;-48
2021/12/30 12:06:38;;;;;;;8.47;4.70;;;10.60;99.90;;;;;;5054248;28;20844;-50
2021/12/30 12:09:08;;;;;;;10.20;5.17;;;10.60;99.90;;;;;;5054140;28;20509;-44
2021/12/30 12:11:49;;;;;;;13.80;5.00;;;10.60;99.90;;;;;;5054494;28;20517;-49
2021/12/30 12:14:18;;;;;;;10.63;4.67;;;10.60;99.90;;;;;;5054356;28;20492;-49
2021/12/30 12:16:54;;;;;;;15.30;5.40;;;10.50;99.90;;;;;;5054397;28;20444;-47
2021/12/30 12:19:22;;;;;;;21.93;5.90;;;10.60;99.90;;;;;;5053991;28;20431;-52
2021/12/30 12:21:51;;;;;;;7.83;4.63;;;10.60;99.90;;;;;;5054011;28;20466;-45
2021/12/30 12:24:31;;;;;;;11.83;5.53;;;10.60;99.90;;;;;;5055366;28;20447;-48
2021/12/30 12:27:00;;;;;;;14.33;4.73;;;10.60;99.90;;;;;;5058315;28;20522;-50
2021/12/30 12:29:29;;;;;;;8.93;5.63;;;10.60;99.90;;;;;;5058151;28;20480;-46
2021/12/30 12:31:59;;;;;;;7.17;4.57;;;10.60;99.90;;;;;;5058436;28;20465;-45
2021/12/30 12:34:42;;;;;;;14.10;5.07;;;10.60;99.90;;;;;;5057822;28;20913;-46
2021/12/30 12:37:41;;;;;;;15.87;4.07;;;10.70;99.90;;;;;;5058216;28;20521;-47
2021/12/30 12:40:11;;;;;;;12.37;6.50;;;10.70;99.90;;;;;;5057639;28;20466;-44
2021/12/30 12:43:01;;;;;;;15.87;5.60;;;10.70;99.90;;;;;;5058044;28;20458;-49
2021/12/30 12:45:30;;;;;;;10.37;4.73;;;10.70;99.90;;;;;;5058011;28;20477;-45
2021/12/30 12:48:34;;;;;;;10.90;5.40;;;10.70;99.90;;;;;;5057924;28;20496;-48
2021/12/30 12:51:06;;;;;;;6.83;3.73;;;10.70;99.90;;;;;;5057421;28;20486;-52
2021/12/30 12:53:45;;;;;;;11.90;4.73;;;10.70;99.90;;;;;;5057765;28;20430;-51
2021/12/30 12:56:15;;;;;;;9.37;4.70;;;10.70;99.90;;;;;;5063087;28;20476;-46